Tilly, Arkansas
Current Conditions -  °F | °C
As of 11:15 AM on Sunday 23 Nov 2014 (Local Time) from KCCA Reporting Station
Light Rain Light Rain  
Wind Chill: 57°   Ceiling: 600
Heat Index: 57°   Visibility: 2.5mi
Dew Point: 57°   Wind: 3mph
Humidity: 100%   Direction: 300°WNW
Pressure: 29.51"   Gusts: NA
Location:  35.72°N, 92.84°W
Report Text: KCCA 231715Z AUTO 30003KT 2 1/2SM -RA OVC006 14/14 A2951 RMK AO2 P0001
Loading
Personal Weather Stations






























Interactive Weather Map New forecast layout! Learn more

10-Day Weather Forecast

Advertisements
Track Severe Weather on mobile